Time;durP1;ratioP1;P1;durP2;ratioP2;P2;SDS_P1;SDS_P2;PMS_P1;PMS_P2;Temp;Humidity;BMP_temperature;BMP_pressure;BME280_temperature;BME280_humidity;BME280_pressure;Samples;Min_cycle;Max_cycle;Signal;HPM_P1;HPM_P2
2022/10/15 00:02:15;;;;;;;4.20;0.70;;;;;;;;;;5010251;28;20045;-76
2022/10/15 00:04:41;;;;;;;3.60;1.10;;;;;;;;;;5003563;28;20503;-76
2022/10/15 00:07:06;;;;;;;6.78;1.30;;;;;;;;;;4990862;28;20052;-77
2022/10/15 00:09:32;;;;;;;7.88;1.10;;;;;;;;;;5005867;28;20026;-76
2022/10/15 00:11:58;;;;;;;5.97;1.40;;;;;;;;;;5009201;28;20056;-76
2022/10/15 00:14:24;;;;;;;1.40;0.70;;;;;;;;;;4991850;28;20050;-76
2022/10/15 00:16:50;;;;;;;3.90;0.95;;;;;;;;;;5004871;28;20052;-75
2022/10/15 00:19:16;;;;;;;4.68;1.10;;;;;;;;;;4994235;28;20034;-76
2022/10/15 00:21:42;;;;;;;3.35;1.00;;;;;;;;;;5005233;28;20045;-76
2022/10/15 00:24:08;;;;;;;3.38;0.80;;;;;;;;;;5005933;28;20068;-76
2022/10/15 00:26:34;;;;;;;4.20;1.00;;;;;;;;;;4996334;28;20463;-76
2022/10/15 00:29:01;;;;;;;2.58;0.80;;;;;;;;;;5009452;28;20033;-76
2022/10/15 00:31:28;;;;;;;1.73;0.80;;;;;;;;;;4993436;28;20027;-76
2022/10/15 00:33:55;;;;;;;4.68;1.10;;;;;;;;;;5008808;28;20030;-76
2022/10/15 00:36:23;;;;;;;5.03;1.17;;;;;;;;;;5006153;28;20034;-76
2022/10/15 00:38:49;;;;;;;4.07;1.00;;;;;;;;;;4996531;28;20046;-76
2022/10/15 00:41:18;;;;;;;5.90;1.25;;;;;;;;;;4996435;28;20053;-76
2022/10/15 00:44:03;;;;;;;4.40;1.00;;;;;;;;;;4990110;28;20882;-75
2022/10/15 00:46:32;;;;;;;5.22;1.15;;;;;;;;;;5004226;28;20124;-76
2022/10/15 00:49:00;;;;;;;4.60;0.70;;;;;;;;;;5009103;28;20030;-76
2022/10/15 00:51:29;;;;;;;2.92;0.80;;;;;;;;;;5009010;28;20034;-76
2022/10/15 00:53:55;;;;;;;2.58;0.57;;;;;;;;;;5008544;28;20033;-76
2022/10/15 00:56:22;;;;;;;2.05;0.68;;;;;;;;;;5005502;28;20420;-76
2022/10/15 00:58:49;;;;;;;1.77;0.85;;;;;;;;;;5005231;28;20720;-76
2022/10/15 01:01:15;;;;;;;4.43;0.80;;;;;;;;;;5001605;28;20401;-76
2022/10/15 01:03:41;;;;;;;1.75;0.55;;;;;;;;;;5008562;28;20075;-76
2022/10/15 01:06:07;;;;;;;2.40;0.80;;;;;;;;;;5006617;28;20219;-76
2022/10/15 01:08:34;;;;;;;3.92;0.80;;;;;;;;;;5008564;28;20759;-76
2022/10/15 01:11:03;;;;;;;10.02;1.25;;;;;;;;;;5005847;28;20057;-76
2022/10/15 01:13:38;;;;;;;4.25;0.80;;;;;;;;;;5008242;28;20084;-75
2022/10/15 01:16:04;;;;;;;3.58;0.68;;;;;;;;;;5008228;28;20033;-76
2022/10/15 01:18:41;;;;;;;3.88;0.80;;;;;;;;;;5006764;28;20496;-76
2022/10/15 01:21:16;;;;;;;1.67;0.60;;;;;;;;;;5002237;28;20122;-76
2022/10/15 01:24:00;;;;;;;3.95;0.60;;;;;;;;;;5008648;28;20087;-76
2022/10/15 01:26:45;;;;;;;6.57;0.80;;;;;;;;;;4997197;28;20743;-76
2022/10/15 01:29:29;;;;;;;2.25;0.90;;;;;;;;;;4998823;28;20109;-76
2022/10/15 01:32:01;;;;;;;5.13;1.20;;;;;;;;;;5004060;28;20026;-76
2022/10/15 01:34:42;;;;;;;3.47;0.75;;;;;;;;;;4997243;28;20039;-76
2022/10/15 01:37:10;;;;;;;4.43;0.88;;;;;;;;;;5004994;28;20040;-76
2022/10/15 01:39:41;;;;;;;4.75;1.10;;;;;;;;;;5000590;28;20042;-76
2022/10/15 01:42:13;;;;;;;4.20;0.90;;;;;;;;;;5007205;28;20080;-75
2022/10/15 01:44:41;;;;;;;2.58;0.90;;;;;;;;;;5005175;28;20034;-76
2022/10/15 01:47:09;;;;;;;3.05;1.00;;;;;;;;;;5008242;28;20149;-76
2022/10/15 01:49:38;;;;;;;4.10;1.20;;;;;;;;;;5000487;28;20042;-76
2022/10/15 01:52:14;;;;;;;3.92;1.00;;;;;;;;;;5000017;28;20560;-76
2022/10/15 01:54:40;;;;;;;4.00;0.75;;;;;;;;;;5006940;28;20034;-76
2022/10/15 01:57:07;;;;;;;5.60;0.98;;;;;;;;;;5011803;28;20064;-76
2022/10/15 01:59:33;;;;;;;3.35;0.70;;;;;;;;;;5012142;28;20034;-75
2022/10/15 02:01:59;;;;;;;4.90;0.85;;;;;;;;;;5010637;28;20030;-76
2022/10/15 02:04:27;;;;;;;3.65;0.60;;;;;;;;;;5011559;28;20038;-76
2022/10/15 02:06:57;;;;;;;1.60;0.70;;;;;;;;;;5000978;28;20046;-76
2022/10/15 02:09:53;;;;;;;1.80;0.65;;;;;;;;;;5007918;28;20056;-76
2022/10/15 02:12:25;;;;;;;2.28;0.70;;;;;;;;;;4985206;28;20117;-76
2022/10/15 02:15:14;;;;;;;2.20;0.60;;;;;;;;;;4999198;28;20085;-76
2022/10/15 02:17:52;;;;;;;3.05;0.70;;;;;;;;;;4995224;28;20885;-76
2022/10/15 02:20:20;;;;;;;3.47;0.70;;;;;;;;;;5007226;28;20046;-76
2022/10/15 02:23:00;;;;;;;3.30;1.00;;;;;;;;;;5011857;28;20121;-76
2022/10/15 02:25:27;;;;;;;3.60;0.55;;;;;;;;;;5011825;28;20112;-76
2022/10/15 02:27:54;;;;;;;3.15;0.60;;;;;;;;;;5011515;28;20037;-76
2022/10/15 02:30:20;;;;;;;1.55;0.40;;;;;;;;;;5011148;28;20042;-76
2022/10/15 02:32:49;;;;;;;4.97;0.75;;;;;;;;;;5011358;28;20041;-76
2022/10/15 02:35:15;;;;;;;4.97;0.40;;;;;;;;;;5006685;28;20041;-76
2022/10/15 02:37:43;;;;;;;1.83;0.40;;;;;;;;;;5012008;28;20128;-76
2022/10/15 02:40:09;;;;;;;1.88;0.60;;;;;;;;;;5003335;28;20043;-76
2022/10/15 02:42:35;;;;;;;1.63;0.50;;;;;;;;;;5001509;28;20030;-76
2022/10/15 02:45:01;;;;;;;7.43;0.60;;;;;;;;;;5006341;28;20113;-76
2022/10/15 02:47:27;;;;;;;3.58;0.60;;;;;;;;;;5003866;28;20125;-76
2022/10/15 02:49:53;;;;;;;1.98;0.60;;;;;;;;;;5010955;28;20029;-76
2022/10/15 02:52:19;;;;;;;4.30;0.50;;;;;;;;;;5011614;28;20041;-76
2022/10/15 02:54:45;;;;;;;4.13;0.60;;;;;;;;;;5005000;28;20063;-76
2022/10/15 02:57:11;;;;;;;2.47;0.60;;;;;;;;;;5007117;28;20034;-76
2022/10/15 02:59:37;;;;;;;6.43;0.80;;;;;;;;;;5003365;28;20038;-76
2022/10/15 03:02:03;;;;;;;2.72;0.60;;;;;;;;;;5009606;28;20033;-76
2022/10/15 03:04:29;;;;;;;3.38;0.60;;;;;;;;;;4997044;28;20033;-76
2022/10/15 03:06:55;;;;;;;2.58;0.80;;;;;;;;;;5010400;28;20061;-76
2022/10/15 03:09:21;;;;;;;3.80;0.80;;;;;;;;;;4995471;28;20161;-76
2022/10/15 03:11:47;;;;;;;5.85;0.70;;;;;;;;;;5007549;28;20049;-76
2022/10/15 03:14:13;;;;;;;2.00;0.60;;;;;;;;;;5003010;28;20053;-76
2022/10/15 03:16:39;;;;;;;5.95;0.60;;;;;;;;;;5003059;28;20092;-76
2022/10/15 03:19:05;;;;;;;3.38;0.70;;;;;;;;;;5002748;28;20350;-75
2022/10/15 03:21:31;;;;;;;4.30;0.75;;;;;;;;;;5007708;28;20037;-76
2022/10/15 03:23:58;;;;;;;3.20;0.50;;;;;;;;;;5007662;28;20080;-76
2022/10/15 03:26:24;;;;;;;2.85;0.57;;;;;;;;;;5002312;28;20033;-76
2022/10/15 03:28:50;;;;;;;1.98;0.70;;;;;;;;;;5008355;28;20037;-76
2022/10/15 03:31:16;;;;;;;2.95;0.82;;;;;;;;;;5010387;28;20041;-76
2022/10/15 03:33:42;;;;;;;2.58;1.05;;;;;;;;;;5003103;28;20034;-75
2022/10/15 03:36:08;;;;;;;2.25;0.90;;;;;;;;;;5009325;28;20056;-76
2022/10/15 03:38:34;;;;;;;1.98;1.02;;;;;;;;;;5003653;28;20129;-76
2022/10/15 03:41:00;;;;;;;3.70;1.00;;;;;;;;;;5001143;28;20116;-76
2022/10/15 03:43:26;;;;;;;3.22;0.90;;;;;;;;;;5001976;28;20465;-76
2022/10/15 03:45:53;;;;;;;2.53;0.80;;;;;;;;;;4998119;28;20036;-75
2022/10/15 03:48:19;;;;;;;5.40;0.73;;;;;;;;;;5007683;28;20030;-76
2022/10/15 03:50:45;;;;;;;3.42;0.90;;;;;;;;;;5005480;28;20061;-76
2022/10/15 03:53:11;;;;;;;3.75;0.65;;;;;;;;;;5007828;28;20034;-75
2022/10/15 03:55:37;;;;;;;3.55;0.93;;;;;;;;;;5010400;28;20065;-76
2022/10/15 03:58:03;;;;;;;4.22;0.93;;;;;;;;;;5002034;28;20361;-75
2022/10/15 04:00:29;;;;;;;3.60;0.98;;;;;;;;;;4998597;28;20053;-76
2022/10/15 04:02:55;;;;;;;5.32;0.70;;;;;;;;;;5001340;28;20045;-76
2022/10/15 04:05:21;;;;;;;2.05;0.68;;;;;;;;;;4990155;28;20034;-76
2022/10/15 04:07:47;;;;;;;1.70;0.60;;;;;;;;;;5000028;28;20034;-75
2022/10/15 04:10:13;;;;;;;3.25;0.95;;;;;;;;;;4996808;28;20042;-76
2022/10/15 04:12:39;;;;;;;5.15;0.90;;;;;;;;;;5004451;28;20030;-75
2022/10/15 04:15:05;;;;;;;3.85;0.77;;;;;;;;;;4990130;28;20619;-76
2022/10/15 04:17:31;;;;;;;7.25;0.95;;;;;;;;;;4990724;28;20035;-76
2022/10/15 04:19:57;;;;;;;3.22;0.85;;;;;;;;;;5005267;28;20045;-76
2022/10/15 04:22:23;;;;;;;7.75;1.10;;;;;;;;;;5006001;28;20064;-76
2022/10/15 04:24:49;;;;;;;2.38;0.68;;;;;;;;;;5008748;28;20074;-76
2022/10/15 04:27:15;;;;;;;8.20;0.70;;;;;;;;;;5004247;28;20818;-76
2022/10/15 04:29:41;;;;;;;3.63;0.80;;;;;;;;;;4996081;28;20801;-76
2022/10/15 04:32:07;;;;;;;3.22;0.70;;;;;;;;;;5008260;28;20124;-76
2022/10/15 04:34:33;;;;;;;4.50;1.05;;;;;;;;;;5008034;28;20035;-76
2022/10/15 04:36:59;;;;;;;4.18;0.90;;;;;;;;;;5009572;28;20165;-76
2022/10/15 04:39:25;;;;;;;2.17;0.77;;;;;;;;;;5008314;28;20447;-76
2022/10/15 04:41:51;;;;;;;2.70;0.55;;;;;;;;;;5006008;28;20034;-76
2022/10/15 04:44:17;;;;;;;3.33;0.60;;;;;;;;;;5002715;28;20069;-76
2022/10/15 04:46:43;;;;;;;2.97;0.68;;;;;;;;;;4994146;28;20069;-76
2022/10/15 04:49:09;;;;;;;5.25;0.75;;;;;;;;;;5001729;28;20062;-76
2022/10/15 04:51:36;;;;;;;5.78;0.93;;;;;;;;;;5008924;28;20469;-76
2022/10/15 04:54:02;;;;;;;2.00;0.73;;;;;;;;;;4998816;28;20065;-76
2022/10/15 04:56:28;;;;;;;2.80;0.70;;;;;;;;;;4994298;28;20610;-76
2022/10/15 04:58:54;;;;;;;2.72;0.80;;;;;;;;;;4989883;28;20038;-76
2022/10/15 05:01:20;;;;;;;3.53;0.63;;;;;;;;;;4997215;28;20037;-76
2022/10/15 05:03:47;;;;;;;7.22;0.80;;;;;;;;;;4999391;28;20034;-76
2022/10/15 05:06:15;;;;;;;9.52;0.85;;;;;;;;;;4995960;28;20358;-76
2022/10/15 05:08:41;;;;;;;1.45;0.57;;;;;;;;;;5009314;28;20084;-76
2022/10/15 05:11:09;;;;;;;4.78;0.70;;;;;;;;;;5008974;28;20076;-77
2022/10/15 05:13:35;;;;;;;5.53;0.77;;;;;;;;;;5007286;28;20438;-76
2022/10/15 05:16:08;;;;;;;4.13;0.68;;;;;;;;;;5001005;28;20512;-76
2022/10/15 05:18:34;;;;;;;3.55;0.80;;;;;;;;;;5003862;28;20042;-75
2022/10/15 05:21:01;;;;;;;4.30;1.33;;;;;;;;;;5004007;28;20143;-76
2022/10/15 05:23:27;;;;;;;6.40;0.98;;;;;;;;;;5008391;28;20531;-76
2022/10/15 05:25:53;;;;;;;3.55;1.38;;;;;;;;;;5005100;28;20052;-76
2022/10/15 05:28:19;;;;;;;14.98;2.25;;;;;;;;;;5007770;28;20513;-76
2022/10/15 05:30:45;;;;;;;3.05;0.90;;;;;;;;;;5002889;28;20120;-76
2022/10/15 05:33:11;;;;;;;6.38;0.93;;;;;;;;;;5003128;28;20030;-76
2022/10/15 05:35:37;;;;;;;6.60;1.00;;;;;;;;;;5000390;28;20038;-76
2022/10/15 05:38:03;;;;;;;4.28;1.00;;;;;;;;;;5003347;28;20035;-75
2022/10/15 05:40:29;;;;;;;2.92;0.80;;;;;;;;;;5001957;28;20077;-76
2022/10/15 05:42:55;;;;;;;5.13;1.20;;;;;;;;;;5001139;28;20034;-76
2022/10/15 05:45:21;;;;;;;2.70;1.10;;;;;;;;;;4997618;28;20030;-76
2022/10/15 05:47:47;;;;;;;3.78;1.00;;;;;;;;;;5001183;28;20113;-76
2022/10/15 05:50:14;;;;;;;2.72;0.90;;;;;;;;;;5002874;28;20058;-76
2022/10/15 05:52:40;;;;;;;4.45;0.80;;;;;;;;;;5002824;28;20029;-76
2022/10/15 05:55:06;;;;;;;3.15;0.90;;;;;;;;;;5006845;28;20839;-76
2022/10/15 05:57:32;;;;;;;5.72;1.48;;;;;;;;;;5002565;28;20057;-76
2022/10/15 05:59:58;;;;;;;7.10;1.45;;;;;;;;;;5003708;28;20060;-76
2022/10/15 06:02:24;;;;;;;6.07;2.28;;;;;;;;;;5002645;28;20026;-76
2022/10/15 06:04:52;;;;;;;10.52;4.28;;;;;;;;;;5000425;28;20032;-76
2022/10/15 06:07:19;;;;;;;8.73;4.30;;;;;;;;;;5005171;28;20117;-76
2022/10/15 06:09:45;;;;;;;7.57;3.58;;;;;;;;;;5000690;28;20037;-76
2022/10/15 06:12:10;;;;;;;7.43;2.67;;;;;;;;;;4998585;28;20030;-76
2022/10/15 06:14:36;;;;;;;8.85;3.15;;;;;;;;;;5015332;28;20049;-76
2022/10/15 06:17:02;;;;;;;10.90;2.90;;;;;;;;;;5000774;28;20046;-76
2022/10/15 06:19:28;;;;;;;5.97;2.55;;;;;;;;;;5000843;28;20381;-76
2022/10/15 06:21:54;;;;;;;5.60;2.40;;;;;;;;;;5000938;28;20026;-76
2022/10/15 06:24:20;;;;;;;6.40;2.05;;;;;;;;;;5003661;28;20054;-76
2022/10/15 06:26:46;;;;;;;5.50;2.53;;;;;;;;;;5001630;28;20026;-76
2022/10/15 06:29:12;;;;;;;6.40;1.63;;;;;;;;;;5000770;28;20681;-76
2022/10/15 06:31:38;;;;;;;8.90;2.22;;;;;;;;;;5001708;28;20443;-77
2022/10/15 06:34:04;;;;;;;4.90;2.17;;;;;;;;;;5003117;28;20105;-76
2022/10/15 06:36:30;;;;;;;7.22;1.83;;;;;;;;;;5000797;28;20045;-76
2022/10/15 06:38:56;;;;;;;9.02;2.67;;;;;;;;;;5000151;28;20548;-76
2022/10/15 06:41:23;;;;;;;6.05;1.75;;;;;;;;;;5005812;28;20153;-76
2022/10/15 06:43:49;;;;;;;7.07;2.00;;;;;;;;;;5011124;28;20026;-76
2022/10/15 06:46:15;;;;;;;6.97;2.03;;;;;;;;;;4997230;28;20392;-76
2022/10/15 06:48:41;;;;;;;7.60;1.95;;;;;;;;;;5008530;28;20030;-76
2022/10/15 06:51:07;;;;;;;5.25;1.77;;;;;;;;;;5006388;28;20064;-77
2022/10/15 06:53:34;;;;;;;4.97;1.13;;;;;;;;;;5008465;28;20030;-77
2022/10/15 06:56:01;;;;;;;4.35;1.92;;;;;;;;;;5007616;28;20116;-76
2022/10/15 06:58:27;;;;;;;6.32;2.42;;;;;;;;;;5007903;28;20038;-78
2022/10/15 07:00:58;;;;;;;6.70;2.00;;;;;;;;;;5006328;28;20039;-77
2022/10/15 07:03:24;;;;;;;10.70;2.27;;;;;;;;;;5007403;28;20033;-78
2022/10/15 07:05:50;;;;;;;7.22;1.42;;;;;;;;;;5004004;28;20254;-78
2022/10/15 07:08:16;;;;;;;5.50;2.00;;;;;;;;;;5008104;28;21022;-76
2022/10/15 07:10:42;;;;;;;8.88;2.22;;;;;;;;;;5008571;28;20037;-74
2022/10/15 07:13:08;;;;;;;5.45;1.60;;;;;;;;;;5009087;28;20034;-77
2022/10/15 07:15:34;;;;;;;7.75;2.95;;;;;;;;;;5003503;28;20168;-77
2022/10/15 07:18:00;;;;;;;12.65;4.75;;;;;;;;;;5009693;28;20473;-79
2022/10/15 07:20:27;;;;;;;7.22;2.42;;;;;;;;;;5010811;28;20045;-76
2022/10/15 07:22:57;;;;;;;8.40;2.53;;;;;;;;;;5008842;28;20032;-77
2022/10/15 07:25:24;;;;;;;8.00;3.15;;;;;;;;;;5004768;28;20030;-76
2022/10/15 07:27:50;;;;;;;5.55;2.45;;;;;;;;;;5005606;28;20164;-76
2022/10/15 07:30:16;;;;;;;5.47;2.90;;;;;;;;;;5002974;28;20553;-77
2022/10/15 07:32:42;;;;;;;7.68;2.85;;;;;;;;;;5010079;28;20073;-77
2022/10/15 07:35:08;;;;;;;7.38;2.47;;;;;;;;;;5010581;28;20400;-76
2022/10/15 07:37:34;;;;;;;5.45;2.60;;;;;;;;;;5001702;28;20072;-76
2022/10/15 07:40:00;;;;;;;7.15;2.35;;;;;;;;;;5005720;28;20038;-76
2022/10/15 07:42:26;;;;;;;6.38;2.25;;;;;;;;;;5007151;28;20026;-76
2022/10/15 07:44:53;;;;;;;6.47;1.70;;;;;;;;;;4999948;28;20766;-76
2022/10/15 07:47:19;;;;;;;4.38;1.50;;;;;;;;;;5009353;28;20378;-76
2022/10/15 07:49:44;;;;;;;6.55;1.88;;;;;;;;;;4998886;28;20042;-77
2022/10/15 07:52:10;;;;;;;5.88;1.83;;;;;;;;;;5010037;28;20030;-77
2022/10/15 07:54:37;;;;;;;5.20;1.42;;;;;;;;;;5008061;28;20733;-77
2022/10/15 07:57:03;;;;;;;5.80;2.22;;;;;;;;;;5007156;28;20036;-77
2022/10/15 07:59:29;;;;;;;6.18;1.80;;;;;;;;;;5005277;28;20114;-76
2022/10/15 08:01:55;;;;;;;5.72;1.75;;;;;;;;;;5006096;28;20118;-76
2022/10/15 08:04:21;;;;;;;5.20;1.15;;;;;;;;;;5005233;28;20041;-76
2022/10/15 08:06:48;;;;;;;8.18;1.75;;;;;;;;;;5000554;28;20030;-76
2022/10/15 08:09:14;;;;;;;5.20;1.45;;;;;;;;;;5000315;28;20086;-76
2022/10/15 08:11:40;;;;;;;6.57;1.25;;;;;;;;;;5003365;28;20499;-77
2022/10/15 08:14:06;;;;;;;5.18;1.00;;;;;;;;;;5005733;28;20054;-77
2022/10/15 08:16:32;;;;;;;2.70;0.85;;;;;;;;;;5005266;28;20079;-77
2022/10/15 08:18:59;;;;;;;3.92;0.80;;;;;;;;;;5010203;28;20053;-77
2022/10/15 08:21:25;;;;;;;3.47;0.77;;;;;;;;;;5005125;28;20026;-76
2022/10/15 08:23:51;;;;;;;2.70;0.90;;;;;;;;;;5008295;28;20038;-76
2022/10/15 08:26:18;;;;;;;2.03;0.70;;;;;;;;;;5007092;28;20382;-76
2022/10/15 08:28:44;;;;;;;2.13;0.70;;;;;;;;;;5003957;28;20029;-76
2022/10/15 08:31:10;;;;;;;3.80;0.80;;;;;;;;;;5000042;28;20153;-76
2022/10/15 08:33:37;;;;;;;5.30;0.80;;;;;;;;;;5005127;28;20808;-76
2022/10/15 08:36:06;;;;;;;5.60;0.93;;;;;;;;;;5003385;28;20045;-76
2022/10/15 08:38:32;;;;;;;1.90;0.70;;;;;;;;;;5007283;28;20029;-75
2022/10/15 08:40:59;;;;;;;2.30;0.77;;;;;;;;;;5006701;28;20034;-76
2022/10/15 08:43:30;;;;;;;4.20;0.80;;;;;;;;;;5004997;28;20131;-76
2022/10/15 08:45:59;;;;;;;2.90;0.65;;;;;;;;;;5002294;28;20061;-76
2022/10/15 08:48:30;;;;;;;5.00;0.90;;;;;;;;;;5006609;28;20038;-77
2022/10/15 08:51:02;;;;;;;5.03;0.90;;;;;;;;;;5004820;28;20041;-76
2022/10/15 08:53:29;;;;;;;5.97;1.30;;;;;;;;;;5004589;28;20117;-76
2022/10/15 08:55:57;;;;;;;4.60;1.23;;;;;;;;;;5002592;28;20036;-76
2022/10/15 08:58:38;;;;;;;3.80;1.17;;;;;;;;;;4999460;28;20022;-76
2022/10/15 09:01:06;;;;;;;2.88;0.98;;;;;;;;;;5004105;28;20393;-77
2022/10/15 09:03:41;;;;;;;6.82;1.42;;;;;;;;;;5002838;28;20132;-76
2022/10/15 09:06:13;;;;;;;3.40;0.70;;;;;;;;;;5000025;28;20867;-76
2022/10/15 09:08:39;;;;;;;;;;;;;;;;;;5005163;28;20138;-76
2022/10/15 09:11:11;;;;;;;2.17;0.70;;;;;;;;;;5008368;28;19980;-76
2022/10/15 09:13:39;;;;;;;;;;;;;;;;;;5005924;28;20185;-76
2022/10/15 09:16:10;;;;;;;2.90;0.90;;;;;;;;;;5005758;28;20447;-76
2022/10/15 09:18:37;;;;;;;3.25;1.00;;;;;;;;;;5008802;28;20048;-76
2022/10/15 09:21:08;;;;;;;2.53;0.80;;;;;;;;;;5008238;28;20065;-76
2022/10/15 09:23:34;;;;;;;4.35;1.08;;;;;;;;;;5008958;28;20114;-76
2022/10/15 09:26:06;;;;;;;2.65;0.80;;;;;;;;;;5006545;28;20444;-76
2022/10/15 09:28:38;;;;;;;4.18;0.70;;;;;;;;;;4999178;28;20030;-76
2022/10/15 09:31:07;;;;;;;3.70;0.90;;;;;;;;;;5008178;28;20112;-76
2022/10/15 09:33:36;;;;;;;1.88;0.73;;;;;;;;;;5007917;28;20030;-76
2022/10/15 09:36:02;;;;;;;2.88;0.85;;;;;;;;;;5000166;28;20582;-76
2022/10/15 09:38:28;;;;;;;3.72;0.75;;;;;;;;;;5007633;28;20527;-76
2022/10/15 09:41:00;;;;;;;3.75;0.98;;;;;;;;;;5008807;28;20100;-76
2022/10/15 09:43:32;;;;;;;4.72;0.80;;;;;;;;;;5005317;28;20470;-76
2022/10/15 09:45:59;;;;;;;4.72;0.82;;;;;;;;;;5004529;28;20129;-77
2022/10/15 09:48:26;;;;;;;4.50;0.88;;;;;;;;;;5004395;28;20129;-76
2022/10/15 09:50:56;;;;;;;3.30;1.02;;;;;;;;;;5005028;28;20044;-76
2022/10/15 09:53:29;;;;;;;3.72;0.88;;;;;;;;;;5007559;28;20029;-76
2022/10/15 09:55:58;;;;;;;5.72;0.98;;;;;;;;;;5004599;28;20088;-76
2022/10/15 09:58:27;;;;;;;4.25;1.00;;;;;;;;;;5002146;28;20034;-76
2022/10/15 10:00:56;;;;;;;2.88;0.90;;;;;;;;;;5003050;28;20049;-76
2022/10/15 10:03:23;;;;;;;6.28;1.30;;;;;;;;;;4997998;28;20632;-76
2022/10/15 10:05:50;;;;;;;8.43;1.48;;;;;;;;;;5006558;28;20034;-76
2022/10/15 10:08:18;;;;;;;1.95;1.10;;;;;;;;;;4995835;28;20057;-76
2022/10/15 10:10:44;;;;;;;3.58;0.90;;;;;;;;;;4992106;28;20042;-76
2022/10/15 10:13:25;;;;;;;3.35;1.05;;;;;;;;;;5001501;28;20035;-76
2022/10/15 10:15:53;;;;;;;2.40;0.60;;;;;;;;;;5009237;28;20046;-77
2022/10/15 10:18:20;;;;;;;3.80;0.90;;;;;;;;;;5007044;28;20069;-76
2022/10/15 10:21:00;;;;;;;4.43;0.73;;;;;;;;;;5005117;28;20030;-76
2022/10/15 10:23:33;;;;;;;3.60;0.73;;;;;;;;;;5009082;28;20021;-76
2022/10/15 10:26:00;;;;;;;5.22;0.82;;;;;;;;;;5007565;28;20026;-76
2022/10/15 10:28:29;;;;;;;4.18;0.85;;;;;;;;;;5011602;28;20048;-76
2022/10/15 10:30:59;;;;;;;2.60;0.63;;;;;;;;;;5009777;28;20134;-76
2022/10/15 10:33:27;;;;;;;6.18;1.92;;;;;;;;;;5010534;28;20041;-76
2022/10/15 10:35:53;;;;;;;4.80;1.10;;;;;;;;;;5005280;28;20268;-76
2022/10/15 10:38:25;;;;;;;3.95;0.70;;;;;;;;;;5005413;28;20037;-76
2022/10/15 10:40:51;;;;;;;;;;;;;;;;;;5012566;28;20026;-77
2022/10/15 10:43:17;;;;;;;4.93;0.70;;;;;;;;;;5010623;28;20013;-74
2022/10/15 10:45:53;;;;;;;5.30;0.98;;;;;;;;;;5004658;28;20038;-72
2022/10/15 10:48:24;;;;;;;3.15;0.80;;;;;;;;;;5004684;28;20026;-75
2022/10/15 10:51:01;;;;;;;3.85;0.90;;;;;;;;;;5008297;28;20038;-75
2022/10/15 10:53:27;;;;;;;3.70;0.90;;;;;;;;;;5007952;28;20880;-75
2022/10/15 10:55:54;;;;;;;5.32;1.05;;;;;;;;;;5008557;28;20042;-75
2022/10/15 10:58:22;;;;;;;3.78;1.00;;;;;;;;;;5009096;28;20414;-74
2022/10/15 11:00:49;;;;;;;4.68;0.70;;;;;;;;;;5008175;28;20061;-75
2022/10/15 11:03:30;;;;;;;1.75;0.70;;;;;;;;;;5009415;28;20038;-75
2022/10/15 11:06:12;;;;;;;3.97;1.00;;;;;;;;;;5009417;28;20044;-75
2022/10/15 11:08:47;;;;;;;3.43;0.80;;;;;;;;;;5005575;28;20308;-74
2022/10/15 11:11:19;;;;;;;2.72;0.70;;;;;;;;;;5005588;28;20477;-74
2022/10/15 11:13:48;;;;;;;5.65;0.80;;;;;;;;;;5002988;28;20527;-74
2022/10/15 11:16:20;;;;;;;6.75;0.75;;;;;;;;;;5008019;28;20083;-75
2022/10/15 11:18:55;;;;;;;3.42;0.60;;;;;;;;;;5008512;28;20040;-75
2022/10/15 11:21:36;;;;;;;1.95;0.43;;;;;;;;;;5012426;28;20076;-75
2022/10/15 11:24:08;;;;;;;2.00;0.47;;;;;;;;;;5008065;28;20026;-74
2022/10/15 11:26:56;;;;;;;4.13;0.50;;;;;;;;;;5007786;28;20787;-75
2022/10/15 11:29:41;;;;;;;3.88;0.57;;;;;;;;;;5000025;28;20641;-75
2022/10/15 11:32:12;;;;;;;2.30;0.50;;;;;;;;;;5006211;28;20049;-75
2022/10/15 11:34:44;;;;;;;3.67;0.60;;;;;;;;;;5005734;28;20030;-75
2022/10/15 11:37:13;;;;;;;5.80;0.65;;;;;;;;;;5001214;28;20111;-75
2022/10/15 11:39:52;;;;;;;2.72;0.70;;;;;;;;;;5005537;28;20072;-75
2022/10/15 11:42:36;;;;;;;3.63;0.90;;;;;;;;;;5003017;28;20169;-74
2022/10/15 11:45:31;;;;;;;2.70;0.40;;;;;;;;;;5004061;28;20042;-74
2022/10/15 11:48:23;;;;;;;2.42;0.52;;;;;;;;;;4963333;28;20098;-74
2022/10/15 11:50:54;;;;;;;2.55;0.50;;;;;;;;;;4975410;28;20046;-75
2022/10/15 11:53:26;;;;;;;1.08;0.40;;;;;;;;;;5008394;28;20034;-74
2022/10/15 11:55:52;;;;;;;;;;;;;;;;;;5005977;28;20046;-74
2022/10/15 11:58:27;;;;;;;1.25;0.35;;;;;;;;;;5008170;28;19913;-74
2022/10/15 12:00:56;;;;;;;1.30;0.30;;;;;;;;;;5007124;28;20033;-74
2022/10/15 12:03:23;;;;;;;0.88;0.38;;;;;;;;;;5001579;28;20031;-75
2022/10/15 12:06:00;;;;;;;5.13;0.50;;;;;;;;;;5003540;28;20034;-75
2022/10/15 12:08:29;;;;;;;2.03;0.40;;;;;;;;;;5007506;28;20034;-75
2022/10/15 12:11:04;;;;;;;4.63;0.60;;;;;;;;;;5000818;28;20040;-75
2022/10/15 12:13:41;;;;;;;1.20;0.30;;;;;;;;;;5001694;28;20102;-74
2022/10/15 12:16:14;;;;;;;2.90;0.47;;;;;;;;;;4999667;28;20116;-75
2022/10/15 12:18:40;;;;;;;0.77;0.30;;;;;;;;;;4999616;28;20030;-75
2022/10/15 12:21:24;;;;;;;3.97;0.40;;;;;;;;;;5001419;28;20037;-75
2022/10/15 12:23:50;;;;;;;2.45;0.28;;;;;;;;;;5005324;28;20075;-75
2022/10/15 12:26:22;;;;;;;0.47;0.20;;;;;;;;;;4995775;28;20703;-75
2022/10/15 12:28:49;;;;;;;1.05;0.30;;;;;;;;;;4999973;28;20030;-74
2022/10/15 12:31:19;;;;;;;1.35;0.40;;;;;;;;;;5002429;28;20093;-75
2022/10/15 12:33:47;;;;;;;3.38;0.25;;;;;;;;;;4997653;28;20029;-75
2022/10/15 12:36:19;;;;;;;1.83;0.40;;;;;;;;;;5003941;28;20048;-75
2022/10/15 12:38:56;;;;;;;1.60;0.35;;;;;;;;;;5005370;28;20030;-75
2022/10/15 12:41:33;;;;;;;5.15;0.30;;;;;;;;;;4997644;28;20060;-75
2022/10/15 12:44:20;;;;;;;1.30;0.30;;;;;;;;;;5004157;28;20034;-74
2022/10/15 12:46:47;;;;;;;6.93;0.80;;;;;;;;;;5000201;28;20405;-75
2022/10/15 12:49:25;;;;;;;2.88;0.55;;;;;;;;;;4997815;28;20121;-74
2022/10/15 12:51:51;;;;;;;2.70;0.50;;;;;;;;;;5006494;28;20679;-75
2022/10/15 12:54:44;;;;;;;3.50;0.20;;;;;;;;;;5000663;28;20038;-74
2022/10/15 12:57:28;;;;;;;2.03;0.40;;;;;;;;;;4996298;28;20077;-75
2022/10/15 12:59:56;;;;;;;1.98;0.20;;;;;;;;;;5000019;28;20536;-74
2022/10/15 13:02:28;;;;;;;3.95;0.30;;;;;;;;;;5006955;28;20034;-74
2022/10/15 13:04:55;;;;;;;3.03;0.40;;;;;;;;;;5020660;28;20026;-75
2022/10/15 13:07:20;;;;;;;5.70;0.45;;;;;;;;;;5002375;28;20089;-74
2022/10/15 13:09:47;;;;;;;1.55;0.40;;;;;;;;;;5006481;28;20034;-74
2022/10/15 13:12:21;;;;;;;1.80;0.35;;;;;;;;;;5001349;28;20571;-74
2022/10/15 13:14:51;;;;;;;3.67;0.30;;;;;;;;;;5017848;28;20052;-74
2022/10/15 13:17:20;;;;;;;1.38;0.20;;;;;;;;;;5001067;28;20092;-75
2022/10/15 13:19:48;;;;;;;3.08;0.30;;;;;;;;;;5001767;28;20105;-74
2022/10/15 13:22:22;;;;;;;2.25;0.30;;;;;;;;;;5005921;28;20473;-74
2022/10/15 13:24:48;;;;;;;0.70;0.20;;;;;;;;;;5002991;28;20045;-74
2022/10/15 13:27:36;;;;;;;3.13;0.22;;;;;;;;;;5004147;28;20678;-75
2022/10/15 13:30:07;;;;;;;1.13;0.30;;;;;;;;;;5021784;28;20044;-75
2022/10/15 13:32:35;;;;;;;2.50;0.20;;;;;;;;;;5002129;28;20058;-75
2022/10/15 13:35:02;;;;;;;3.40;0.30;;;;;;;;;;5007603;28;20038;-75
2022/10/15 13:37:34;;;;;;;3.05;0.47;;;;;;;;;;5002521;28;20041;-74
2022/10/15 13:40:01;;;;;;;2.88;0.22;;;;;;;;;;5004528;28;20049;-74
2022/10/15 13:42:27;;;;;;;1.88;0.32;;;;;;;;;;4999817;28;20033;-75
2022/10/15 13:45:15;;;;;;;2.72;0.30;;;;;;;;;;5004597;28;20092;-74
2022/10/15 13:47:42;;;;;;;1.48;0.20;;;;;;;;;;5011811;28;20045;-74
2022/10/15 13:50:12;;;;;;;0.50;0.20;;;;;;;;;;5008754;28;20033;-74
2022/10/15 13:52:42;;;;;;;5.57;0.30;;;;;;;;;;5012649;28;20884;-75
2022/10/15 13:55:18;;;;;;;0.47;0.20;;;;;;;;;;5009720;28;20080;-74
2022/10/15 13:57:48;;;;;;;3.03;0.30;;;;;;;;;;5002575;28;20050;-75
2022/10/15 14:00:25;;;;;;;2.28;0.20;;;;;;;;;;5009452;28;20065;-74
2022/10/15 14:03:10;;;;;;;0.30;0.20;;;;;;;;;;5012281;28;20713;-75
2022/10/15 14:05:36;;;;;;;1.98;0.25;;;;;;;;;;5004743;28;20048;-74
2022/10/15 14:08:02;;;;;;;1.55;0.20;;;;;;;;;;5004164;28;20081;-74
2022/10/15 14:10:28;;;;;;;3.40;0.30;;;;;;;;;;4999880;28;20478;-74
2022/10/15 14:12:54;;;;;;;3.45;0.35;;;;;;;;;;5001970;28;20038;-74
2022/10/15 14:15:46;;;;;;;1.58;0.40;;;;;;;;;;5003728;28;20053;-74
2022/10/15 14:18:14;;;;;;;0.80;0.30;;;;;;;;;;4995980;28;20042;-74
2022/10/15 14:20:47;;;;;;;1.98;0.43;;;;;;;;;;5005165;28;20034;-74
2022/10/15 14:23:15;;;;;;;0.98;0.40;;;;;;;;;;4999661;28;20092;-74
2022/10/15 14:25:41;;;;;;;0.38;0.15;;;;;;;;;;5005575;28;20041;-74
2022/10/15 14:28:17;;;;;;;2.67;0.30;;;;;;;;;;5003189;28;20034;-74
2022/10/15 14:30:43;;;;;;;1.27;0.20;;;;;;;;;;4999260;28;20049;-74
2022/10/15 14:33:28;;;;;;;4.45;0.60;;;;;;;;;;4998243;28;20881;-74
2022/10/15 14:36:04;;;;;;;1.98;0.30;;;;;;;;;;5001325;28;20048;-74
2022/10/15 14:38:31;;;;;;;1.10;0.40;;;;;;;;;;5007910;28;20084;-74
2022/10/15 14:41:07;;;;;;;2.38;0.40;;;;;;;;;;5004690;28;20489;-74
2022/10/15 14:43:35;;;;;;;3.35;0.30;;;;;;;;;;5008193;28;20041;-74
2022/10/15 14:46:03;;;;;;;1.67;0.30;;;;;;;;;;5001655;28;20066;-74
2022/10/15 14:48:34;;;;;;;0.90;0.43;;;;;;;;;;4999439;28;20690;-74
2022/10/15 14:51:03;;;;;;;0.60;0.20;;;;;;;;;;5003696;28;20041;-74
2022/10/15 14:53:31;;;;;;;1.23;0.20;;;;;;;;;;5007677;28;20038;-74
2022/10/15 14:55:59;;;;;;;3.33;0.40;;;;;;;;;;5003050;28;20054;-74